createdAt,value
2022-10-26T00:01:59.851Z,1.60
2022-10-26T00:04:27.272Z,1.67
2022-10-26T00:06:54.652Z,1.60
2022-10-26T00:09:23.443Z,1.73
2022-10-26T00:11:50.898Z,1.60
2022-10-26T00:14:18.315Z,2.03
2022-10-26T00:16:45.735Z,1.60
2022-10-26T00:19:13.131Z,1.50
2022-10-26T00:21:40.523Z,2.00
2022-10-26T00:24:08.003Z,1.70
2022-10-26T00:26:36.808Z,1.70
2022-10-26T00:29:04.200Z,1.80
2022-10-26T00:31:31.609Z,1.90
2022-10-26T00:33:59.032Z,1.67
2022-10-26T00:36:27.069Z,1.93
2022-10-26T00:38:55.038Z,1.70
2022-10-26T00:41:23.693Z,1.70
2022-10-26T00:43:52.978Z,1.57
2022-10-26T00:46:22.391Z,1.90
2022-10-26T00:48:52.013Z,1.60
2022-10-26T00:51:23.954Z,1.60
2022-10-26T00:53:51.909Z,1.70
2022-10-26T00:56:19.479Z,1.80
2022-10-26T00:58:47.063Z,1.77
2022-10-26T01:01:16.124Z,1.77
2022-10-26T01:03:43.710Z,1.53
2022-10-26T01:06:12.219Z,2.00
2022-10-26T01:08:39.838Z,1.77
2022-10-26T01:11:07.314Z,1.93
2022-10-26T01:13:35.810Z,1.50
2022-10-26T01:16:12.550Z,1.97
2022-10-26T01:18:42.589Z,1.57
2022-10-26T01:21:34.276Z,1.90
2022-10-26T01:24:14.577Z,2.13
2022-10-26T01:26:54.008Z,1.93
2022-10-26T01:29:30.007Z,2.40
2022-10-26T01:32:00.606Z,1.80
2022-10-26T01:34:31.900Z,1.60
2022-10-26T01:37:01.511Z,1.90
2022-10-26T01:39:30.438Z,1.80
2022-10-26T01:41:59.785Z,1.97
2022-10-26T01:44:30.270Z,1.50
2022-10-26T01:46:59.777Z,1.60
2022-10-26T01:49:29.059Z,2.00
2022-10-26T01:51:56.442Z,1.67
2022-10-26T01:54:23.872Z,1.80
2022-10-26T01:56:52.897Z,1.57
2022-10-26T01:59:40.945Z,1.57
2022-10-26T02:02:19.606Z,1.60
2022-10-26T02:04:52.461Z,1.60
2022-10-26T02:07:25.704Z,1.93
2022-10-26T02:09:58.136Z,1.60
2022-10-26T02:12:30.811Z,1.73
2022-10-26T02:14:59.823Z,1.90
2022-10-26T02:17:29.843Z,1.63
2022-10-26T02:19:59.837Z,1.60
2022-10-26T02:22:29.908Z,1.90
2022-10-26T02:24:58.513Z,2.20
2022-10-26T02:27:27.752Z,1.80
2022-10-26T02:29:56.707Z,1.80
2022-10-26T02:32:25.873Z,2.10
2022-10-26T02:34:56.200Z,1.90
2022-10-26T02:37:24.331Z,1.83
2022-10-26T02:39:52.717Z,1.63
2022-10-26T02:42:20.512Z,1.70
2022-10-26T02:44:50.238Z,1.80
2022-10-26T02:47:18.104Z,1.90
2022-10-26T02:49:45.715Z,1.77
2022-10-26T02:52:18.946Z,1.87
2022-10-26T02:54:51.723Z,1.87
2022-10-26T02:57:21.080Z,1.90
2022-10-26T02:59:48.767Z,2.10
2022-10-26T03:02:17.539Z,2.27
2022-10-26T03:04:44.954Z,1.87
2022-10-26T03:07:12.401Z,1.63
2022-10-26T03:09:41.178Z,1.83
2022-10-26T03:12:08.599Z,1.60
2022-10-26T03:14:35.974Z,2.63
2022-10-26T03:17:03.375Z,2.00
2022-10-26T03:19:30.883Z,1.80
2022-10-26T03:21:58.283Z,1.80
2022-10-26T03:24:25.658Z,1.90
2022-10-26T03:26:56.100Z,1.87
2022-10-26T03:29:25.784Z,2.23
2022-10-26T03:31:55.095Z,2.10
2022-10-26T03:34:22.608Z,1.77
2022-10-26T03:36:50.059Z,1.87
2022-10-26T03:39:17.549Z,2.03
2022-10-26T03:41:45.218Z,2.20
2022-10-26T03:44:13.997Z,2.90
2022-10-26T03:46:41.404Z,2.50
2022-10-26T03:49:08.802Z,1.57
2022-10-26T03:51:36.174Z,2.30
2022-10-26T03:54:05.129Z,2.30
2022-10-26T03:56:32.614Z,2.00
2022-10-26T03:59:00.189Z,1.83
2022-10-26T04:01:28.934Z,2.20
2022-10-26T04:03:56.418Z,2.17
2022-10-26T04:06:23.865Z,1.63
2022-10-26T04:08:51.703Z,1.87
2022-10-26T04:11:19.072Z,2.20
2022-10-26T04:13:46.410Z,1.70
2022-10-26T04:16:13.771Z,2.10
2022-10-26T04:18:42.523Z,2.10
2022-10-26T04:21:09.915Z,2.57
2022-10-26T04:23:38.400Z,2.23
2022-10-26T04:26:05.862Z,1.87
2022-10-26T04:28:33.278Z,2.20
2022-10-26T04:31:00.698Z,1.90
2022-10-26T04:33:28.127Z,2.00
2022-10-26T04:36:01.270Z,1.90
2022-10-26T04:38:28.787Z,2.07
2022-10-26T04:40:56.284Z,2.20
2022-10-26T04:43:23.656Z,2.20
2022-10-26T04:45:51.093Z,1.80
2022-10-26T04:48:18.518Z,1.90
2022-10-26T04:50:45.975Z,2.00
2022-10-26T04:53:14.702Z,2.20
2022-10-26T04:55:42.188Z,1.90
2022-10-26T04:58:09.650Z,1.90
2022-10-26T05:00:37.025Z,1.97
2022-10-26T05:03:05.371Z,2.10
2022-10-26T05:05:33.651Z,1.60
2022-10-26T05:08:01.112Z,1.90
2022-10-26T05:10:30.121Z,1.63
2022-10-26T05:12:59.254Z,1.70
2022-10-26T05:15:26.711Z,1.60
2022-10-26T05:17:57.581Z,1.70
2022-10-26T05:20:30.180Z,1.70
2022-10-26T05:22:57.726Z,1.90
2022-10-26T05:25:25.217Z,2.10
2022-10-26T05:27:57.926Z,2.60
2022-10-26T05:30:25.384Z,2.30
2022-10-26T05:32:54.667Z,2.30
2022-10-26T05:35:22.055Z,1.70
2022-10-26T05:37:49.458Z,1.67
2022-10-26T05:40:17.659Z,1.50
2022-10-26T05:42:45.160Z,1.97
2022-10-26T05:45:14.354Z,1.50
2022-10-26T05:47:42.229Z,1.40
2022-10-26T05:50:10.295Z,1.30
2022-10-26T05:52:40.932Z,2.10
2022-10-26T05:55:08.923Z,1.60
2022-10-26T05:57:37.028Z,1.40
2022-10-26T06:00:07.775Z,1.60
2022-10-26T06:02:40.252Z,1.40
2022-10-26T06:05:11.054Z,1.57
2022-10-26T06:07:38.767Z,1.40
2022-10-26T06:10:06.730Z,2.20
2022-10-26T06:12:34.480Z,1.70
2022-10-26T06:15:02.155Z,1.73
2022-10-26T06:17:37.094Z,1.57
2022-10-26T06:22:53.174Z,1.97
2022-10-26T06:25:27.423Z,1.80
2022-10-26T06:27:59.874Z,1.60
2022-10-26T06:30:27.796Z,1.73
2022-10-26T06:33:05.866Z,1.90
2022-10-26T06:35:45.388Z,1.87
2022-10-26T06:38:14.084Z,1.63
2022-10-26T06:40:43.761Z,1.70
2022-10-26T06:43:13.985Z,2.00
2022-10-26T06:45:43.105Z,1.90
2022-10-26T06:48:11.858Z,1.90
2022-10-26T06:50:44.310Z,2.00
2022-10-26T06:53:17.467Z,1.50
2022-10-26T06:55:46.496Z,2.00
2022-10-26T06:58:16.540Z,1.87
2022-10-26T07:00:45.096Z,2.00
2022-10-26T07:03:12.610Z,2.13
2022-10-26T07:05:41.845Z,1.90
2022-10-26T07:08:09.552Z,2.07
2022-10-26T07:10:39.075Z,2.00
2022-10-26T07:13:07.025Z,2.20
2022-10-26T07:15:34.934Z,2.47
2022-10-26T07:18:03.264Z,2.30
2022-10-26T07:20:30.931Z,2.50
2022-10-26T07:22:59.747Z,2.43
2022-10-26T07:25:27.874Z,2.57
2022-10-26T07:27:58.271Z,2.33
2022-10-26T07:30:25.828Z,2.60
2022-10-26T07:32:59.655Z,2.60
2022-10-26T07:35:27.228Z,2.30
2022-10-26T07:37:57.434Z,2.70
2022-10-26T07:40:27.100Z,2.13
2022-10-26T07:42:57.278Z,2.23
2022-10-26T07:45:27.837Z,2.50
2022-10-26T07:47:55.377Z,2.53
2022-10-26T07:50:23.027Z,2.30
2022-10-26T07:52:51.209Z,2.37
2022-10-26T07:55:19.121Z,2.10
2022-10-26T07:57:50.964Z,2.33
2022-10-26T08:00:22.380Z,2.60
2022-10-26T08:02:49.857Z,2.20
2022-10-26T08:05:17.674Z,2.43
2022-10-26T08:07:45.602Z,2.23
2022-10-26T08:10:13.705Z,2.50
2022-10-26T08:12:41.399Z,2.50
2022-10-26T08:15:11.071Z,2.47
2022-10-26T08:17:38.545Z,2.43
2022-10-26T08:20:09.849Z,2.37
2022-10-26T08:22:37.290Z,2.40
2022-10-26T08:25:04.919Z,2.50
2022-10-26T08:27:32.351Z,2.27
2022-10-26T08:29:59.928Z,2.80
2022-10-26T08:32:28.927Z,2.90
2022-10-26T08:34:56.342Z,3.57
2022-10-26T08:37:23.834Z,2.30
2022-10-26T08:39:54.668Z,2.37
2022-10-26T08:42:26.336Z,2.13
2022-10-26T08:44:58.532Z,2.50
2022-10-26T08:47:28.032Z,2.27
2022-10-26T08:50:00.977Z,2.50
2022-10-26T08:52:31.752Z,2.40
2022-10-26T08:55:00.437Z,2.30
2022-10-26T08:57:29.628Z,2.63
2022-10-26T08:59:59.139Z,2.00
2022-10-26T09:02:27.345Z,2.30
2022-10-26T09:04:56.215Z,2.03
2022-10-26T09:07:33.778Z,1.80
2022-10-26T09:10:04.024Z,2.77
2022-10-26T09:12:38.104Z,2.30
2022-10-26T09:15:12.042Z,2.70
2022-10-26T09:17:43.835Z,2.50
2022-10-26T09:20:26.573Z,1.93
2022-10-26T09:22:58.887Z,2.37
2022-10-26T09:25:28.434Z,2.07
2022-10-26T09:27:56.726Z,2.30
2022-10-26T09:30:24.412Z,2.20
2022-10-26T09:32:53.372Z,2.37
2022-10-26T09:35:22.369Z,2.47
2022-10-26T09:37:51.623Z,2.10
2022-10-26T09:40:23.618Z,3.13
2022-10-26T09:42:55.389Z,2.13
2022-10-26T09:45:25.412Z,2.53
2022-10-26T09:47:54.397Z,2.20
2022-10-26T09:50:24.777Z,1.83
2022-10-26T09:52:52.353Z,1.67
2022-10-26T09:55:22.890Z,2.30
2022-10-26T09:57:52.728Z,2.10
2022-10-26T10:00:21.080Z,2.30
2022-10-26T10:02:51.690Z,1.60
2022-10-26T10:05:49.660Z,2.70
2022-10-26T10:08:18.741Z,2.83
2022-10-26T10:10:58.198Z,2.27
2022-10-26T10:13:26.668Z,2.27
2022-10-26T10:15:55.425Z,2.00
2022-10-26T10:18:23.540Z,2.20
2022-10-26T10:20:52.724Z,1.83
2022-10-26T10:23:26.795Z,1.87
2022-10-26T10:26:00.805Z,1.90
2022-10-26T10:28:28.782Z,1.93
2022-10-26T10:30:59.392Z,2.17
2022-10-26T10:33:34.552Z,2.00
2022-10-26T10:36:02.381Z,1.80
2022-10-26T10:38:29.869Z,1.80
2022-10-26T10:40:57.973Z,1.90
2022-10-26T10:43:27.189Z,2.07
2022-10-26T10:45:59.397Z,1.80
2022-10-26T10:48:28.492Z,1.60
2022-10-26T10:50:57.478Z,2.00
2022-10-26T10:53:26.808Z,2.20
2022-10-26T10:56:01.798Z,1.97
2022-10-26T10:58:34.070Z,1.67
2022-10-26T11:01:01.469Z,1.90
2022-10-26T11:03:34.304Z,2.23
2022-10-26T11:06:05.859Z,2.03
2022-10-26T11:08:35.950Z,2.07
2022-10-26T11:11:05.504Z,2.07
2022-10-26T11:13:35.719Z,1.77
2022-10-26T11:16:04.671Z,2.00
2022-10-26T11:18:34.824Z,2.27
2022-10-26T11:21:03.778Z,2.00
2022-10-26T11:23:36.230Z,2.00
2022-10-26T11:26:07.071Z,2.07
2022-10-26T11:28:39.862Z,2.00
2022-10-26T11:31:11.174Z,2.07
2022-10-26T11:33:41.544Z,1.80
2022-10-26T11:36:10.877Z,2.00
2022-10-26T11:38:46.722Z,2.10
2022-10-26T11:41:25.547Z,2.07
2022-10-26T11:43:58.270Z,1.60
2022-10-26T11:46:29.123Z,2.13
2022-10-26T11:48:58.030Z,2.10
2022-10-26T11:51:34.806Z,2.27
2022-10-26T11:54:05.588Z,2.00
2022-10-26T11:56:34.386Z,1.80
2022-10-26T11:59:03.244Z,1.97
2022-10-26T12:01:31.855Z,1.80
2022-10-26T12:04:01.660Z,1.70
2022-10-26T12:06:31.849Z,1.80
2022-10-26T12:09:04.501Z,1.60
2022-10-26T12:11:37.020Z,1.40
2022-10-26T12:14:08.760Z,1.80
2022-10-26T12:16:42.430Z,1.77
2022-10-26T12:19:13.384Z,1.70
2022-10-26T12:21:42.287Z,1.30
2022-10-26T12:24:24.548Z,1.33
2022-10-26T12:26:52.867Z,1.60
2022-10-26T12:29:29.927Z,1.47
2022-10-26T12:31:57.548Z,1.43
2022-10-26T12:34:26.175Z,1.63
2022-10-26T12:37:08.425Z,1.43
2022-10-26T12:39:36.579Z,1.90
2022-10-26T12:42:11.395Z,1.47
2022-10-26T12:44:41.155Z,1.67
2022-10-26T12:47:08.729Z,1.27
2022-10-26T12:49:50.999Z,1.47
2022-10-26T12:52:19.614Z,1.50
2022-10-26T12:54:50.949Z,1.47
2022-10-26T12:57:21.965Z,1.40
2022-10-26T12:59:53.413Z,1.30
2022-10-26T13:02:28.906Z,1.40
2022-10-26T13:05:06.072Z,1.27
2022-10-26T13:07:36.024Z,1.30
2022-10-26T13:10:04.920Z,1.53
2022-10-26T13:12:38.175Z,1.33
2022-10-26T13:15:19.023Z,1.40
2022-10-26T13:17:53.637Z,1.20
2022-10-26T13:20:21.224Z,1.30
2022-10-26T13:22:49.281Z,1.50
2022-10-26T13:25:22.267Z,1.20
2022-10-26T13:27:59.131Z,1.20
2022-10-26T13:30:44.530Z,1.17
2022-10-26T13:33:22.097Z,1.17
2022-10-26T13:35:51.717Z,1.00
2022-10-26T13:38:21.231Z,1.27
2022-10-26T13:40:49.580Z,1.43
2022-10-26T13:43:20.537Z,1.10
2022-10-26T13:45:51.463Z,0.90
2022-10-26T13:48:24.614Z,1.10
2022-10-26T13:50:53.473Z,1.03
2022-10-26T13:53:23.355Z,1.00
2022-10-26T13:55:53.043Z,0.90
2022-10-26T13:58:23.960Z,1.07
2022-10-26T14:01:12.511Z,0.90
2022-10-26T14:03:41.850Z,0.90
2022-10-26T14:06:15.049Z,1.00
2022-10-26T14:08:43.149Z,0.73
2022-10-26T14:11:13.413Z,0.90
2022-10-26T14:13:42.775Z,0.90
2022-10-26T14:16:14.213Z,0.90
2022-10-26T14:18:46.264Z,1.40
2022-10-26T14:21:16.087Z,1.10
2022-10-26T14:23:47.046Z,1.13
2022-10-26T14:26:20.406Z,0.73
2022-10-26T14:28:50.377Z,0.80
2022-10-26T14:31:22.217Z,1.63
2022-10-26T14:33:51.102Z,1.00
2022-10-26T14:36:20.931Z,0.90
2022-10-26T14:38:50.457Z,0.83
2022-10-26T14:41:18.299Z,0.90
2022-10-26T14:43:46.280Z,0.83
2022-10-26T14:46:15.532Z,1.10
2022-10-26T14:48:50.862Z,0.80
2022-10-26T14:51:21.182Z,0.90
2022-10-26T14:53:49.540Z,0.77
2022-10-26T14:56:24.378Z,1.00
2022-10-26T14:58:52.160Z,0.90
2022-10-26T15:01:29.287Z,1.10
2022-10-26T15:04:02.075Z,0.87
2022-10-26T15:06:43.927Z,1.00
2022-10-26T15:09:29.895Z,0.90
2022-10-26T15:11:57.404Z,0.90
2022-10-26T15:14:24.863Z,1.10
2022-10-26T15:16:54.162Z,1.40
2022-10-26T15:19:23.840Z,1.10
2022-10-26T15:21:53.415Z,1.33
2022-10-26T15:24:27.388Z,1.50
2022-10-26T15:26:54.919Z,1.30
2022-10-26T15:29:38.172Z,1.37
2022-10-26T15:32:06.452Z,1.40
2022-10-26T15:34:33.918Z,1.23
2022-10-26T15:37:03.213Z,1.47
2022-10-26T15:39:30.652Z,1.20
2022-10-26T15:41:58.027Z,1.60
2022-10-26T15:44:25.562Z,1.17
2022-10-26T15:46:53.151Z,1.27
2022-10-26T15:49:21.841Z,1.50
2022-10-26T15:51:49.528Z,1.10
2022-10-26T15:54:18.280Z,1.00
2022-10-26T15:56:45.778Z,1.13
2022-10-26T15:59:14.878Z,1.20
2022-10-26T16:01:42.515Z,1.50
2022-10-26T16:04:10.209Z,1.30
2022-10-26T16:06:39.092Z,1.40
2022-10-26T16:09:08.236Z,1.30
2022-10-26T16:11:37.060Z,1.40
2022-10-26T16:14:07.419Z,1.20
2022-10-26T16:16:34.806Z,1.20
2022-10-26T16:19:25.592Z,1.30
2022-10-26T16:21:51.809Z,1.20
2022-10-26T16:24:19.375Z,1.20
2022-10-26T16:26:48.120Z,1.27
2022-10-26T16:29:15.536Z,1.90
2022-10-26T16:31:42.965Z,1.67
2022-10-26T16:34:10.459Z,1.63
2022-10-26T16:36:38.669Z,1.70
2022-10-26T16:39:06.152Z,1.80
2022-10-26T16:41:34.599Z,1.87
2022-10-26T16:44:06.355Z,1.77
2022-10-26T16:46:33.765Z,1.80
2022-10-26T16:49:01.202Z,1.37
2022-10-26T16:51:29.165Z,2.50
2022-10-26T16:53:57.187Z,1.20
2022-10-26T16:56:25.308Z,1.40
2022-10-26T16:58:52.677Z,1.43
2022-10-26T17:01:22.166Z,1.27
2022-10-26T17:03:50.433Z,1.50
2022-10-26T17:06:18.464Z,1.73
2022-10-26T17:08:45.884Z,1.60
2022-10-26T17:11:14.083Z,6.60
2022-10-26T17:13:41.918Z,8.10
2022-10-26T17:16:11.618Z,6.53
2022-10-26T17:18:41.629Z,4.77
2022-10-26T17:21:09.455Z,4.00
2022-10-26T17:23:36.960Z,2.90
2022-10-26T17:26:04.812Z,2.37
2022-10-26T17:28:32.471Z,1.70
2022-10-26T17:31:03.235Z,1.90
2022-10-26T17:33:32.475Z,2.30
2022-10-26T17:36:01.268Z,1.80
2022-10-26T17:38:31.353Z,2.10
2022-10-26T17:41:01.071Z,2.00
2022-10-26T17:43:30.512Z,1.80
2022-10-26T17:45:59.134Z,1.97
2022-10-26T17:48:26.639Z,2.20
2022-10-26T17:50:54.220Z,2.03
2022-10-26T17:53:23.215Z,1.97
2022-10-26T17:55:50.602Z,2.07
2022-10-26T17:58:18.200Z,2.50
2022-10-26T18:00:49.217Z,2.37
2022-10-26T18:03:17.668Z,2.63
2022-10-26T18:05:49.227Z,1.87
2022-10-26T18:08:16.684Z,2.20
2022-10-26T18:10:48.742Z,2.50
2022-10-26T18:13:16.609Z,2.10
2022-10-26T18:15:44.395Z,2.67
2022-10-26T18:18:12.014Z,2.23
2022-10-26T18:20:39.476Z,2.53
2022-10-26T18:23:07.204Z,2.50
2022-10-26T18:25:36.058Z,2.20
2022-10-26T18:28:05.115Z,2.00
2022-10-26T18:30:32.638Z,2.10
2022-10-26T18:33:00.008Z,2.07
2022-10-26T18:35:27.419Z,1.83
2022-10-26T18:37:54.796Z,2.10
2022-10-26T18:40:22.183Z,2.23
2022-10-26T18:42:49.593Z,2.00
2022-10-26T18:45:18.412Z,2.03
2022-10-26T18:47:45.956Z,2.10
2022-10-26T18:50:13.476Z,2.10
2022-10-26T18:52:40.943Z,14.27
2022-10-26T18:55:09.258Z,9.60
2022-10-26T18:57:36.691Z,6.80
2022-10-26T19:00:04.493Z,3.93
2022-10-26T19:02:33.272Z,2.77
2022-10-26T19:05:00.804Z,2.70
2022-10-26T19:07:28.283Z,2.20
2022-10-26T19:09:55.725Z,2.10
2022-10-26T19:12:23.144Z,2.20
2022-10-26T19:14:51.442Z,3.63
2022-10-26T19:17:18.863Z,15.00
2022-10-26T19:19:47.640Z,9.10
2022-10-26T19:22:15.071Z,3.40
2022-10-26T19:24:44.923Z,2.80
2022-10-26T19:27:12.390Z,2.10
2022-10-26T19:29:40.941Z,1.87
2022-10-26T19:32:08.424Z,3.67
2022-10-26T19:34:35.817Z,5.60
2022-10-26T19:37:05.284Z,7.50
2022-10-26T19:39:32.775Z,5.23
2022-10-26T19:42:00.185Z,3.70
2022-10-26T19:44:27.536Z,4.77
2022-10-26T19:46:57.614Z,2.90
2022-10-26T19:49:25.129Z,2.60
2022-10-26T19:51:52.651Z,2.60
2022-10-26T19:54:21.427Z,2.60
2022-10-26T19:56:48.777Z,2.20
2022-10-26T19:59:16.279Z,3.00
2022-10-26T20:01:43.757Z,3.80
2022-10-26T20:04:11.170Z,3.40
2022-10-26T20:06:38.612Z,3.43
2022-10-26T20:09:06.051Z,3.10
2022-10-26T20:11:36.605Z,3.20
2022-10-26T20:14:08.332Z,2.70
2022-10-26T20:16:35.736Z,2.53
2022-10-26T20:19:03.144Z,2.73
2022-10-26T20:21:30.606Z,2.77
2022-10-26T20:23:58.012Z,2.77
2022-10-26T20:26:28.411Z,3.13
2022-10-26T20:28:57.413Z,3.80
2022-10-26T20:31:24.888Z,3.10
2022-10-26T20:33:53.104Z,4.10
2022-10-26T20:36:21.025Z,4.27
2022-10-26T20:38:48.675Z,3.70
2022-10-26T20:41:16.380Z,3.90
2022-10-26T20:43:44.155Z,2.60
2022-10-26T20:46:18.313Z,2.90
2022-10-26T20:48:46.023Z,2.63
2022-10-26T20:51:17.211Z,2.70
2022-10-26T20:53:49.567Z,3.77
2022-10-26T20:56:21.032Z,4.60
2022-10-26T20:58:51.115Z,4.23
2022-10-26T21:01:22.953Z,4.50
2022-10-26T21:03:52.311Z,3.60
2022-10-26T21:06:19.673Z,3.23
2022-10-26T21:08:48.775Z,2.97
2022-10-26T21:11:16.211Z,3.00
2022-10-26T21:13:44.007Z,3.20
2022-10-26T21:16:11.411Z,2.50
2022-10-26T21:18:40.372Z,4.20
2022-10-26T21:21:07.929Z,2.73
2022-10-26T21:23:36.209Z,2.73
2022-10-26T21:26:03.744Z,2.90
2022-10-26T21:28:33.712Z,2.80
2022-10-26T21:31:02.006Z,2.60
2022-10-26T21:33:31.971Z,2.83
2022-10-26T21:36:00.920Z,2.57
2022-10-26T21:38:28.688Z,3.27
2022-10-26T21:41:02.566Z,3.67
2022-10-26T21:43:29.982Z,3.37
2022-10-26T21:45:57.775Z,2.93
2022-10-26T21:48:25.139Z,3.37
2022-10-26T21:50:52.552Z,3.37
2022-10-26T21:53:21.331Z,2.93
2022-10-26T21:55:48.795Z,2.90
2022-10-26T21:58:17.424Z,2.90
2022-10-26T22:00:44.878Z,2.53
2022-10-26T22:03:12.290Z,2.43
2022-10-26T22:05:43.647Z,2.90
2022-10-26T22:08:13.243Z,2.70
2022-10-26T22:10:41.965Z,2.60
2022-10-26T22:13:09.377Z,2.40
2022-10-26T22:15:37.005Z,2.37
2022-10-26T22:18:04.503Z,2.60
2022-10-26T22:20:31.920Z,2.47
2022-10-26T22:22:59.337Z,2.00
2022-10-26T22:25:26.837Z,3.10
2022-10-26T22:27:55.551Z,2.60
2022-10-26T22:30:22.964Z,2.40
2022-10-26T22:32:50.507Z,2.40
2022-10-26T22:35:29.011Z,3.47
2022-10-26T22:37:57.349Z,2.60
2022-10-26T22:40:24.832Z,2.53
2022-10-26T22:42:52.577Z,2.40
2022-10-26T22:45:21.535Z,2.43
2022-10-26T22:47:48.917Z,2.50
2022-10-26T22:50:16.433Z,2.30
2022-10-26T22:52:43.788Z,2.43
2022-10-26T22:55:11.167Z,2.20
2022-10-26T22:57:38.571Z,2.07
2022-10-26T23:00:06.775Z,2.40
2022-10-26T23:02:35.484Z,2.07
2022-10-26T23:05:02.900Z,2.57
2022-10-26T23:07:30.362Z,1.97
2022-10-26T23:09:57.780Z,2.20
2022-10-26T23:12:25.161Z,2.97
2022-10-26T23:14:52.512Z,2.00
2022-10-26T23:17:19.880Z,2.20
2022-10-26T23:19:48.603Z,2.40
2022-10-26T23:22:16.016Z,2.03
2022-10-26T23:24:43.423Z,2.40
2022-10-26T23:27:10.795Z,2.33
2022-10-26T23:29:38.218Z,2.50
2022-10-26T23:32:05.713Z,2.27
2022-10-26T23:34:33.083Z,2.33
2022-10-26T23:37:01.848Z,1.93
2022-10-26T23:39:29.223Z,2.53
2022-10-26T23:41:56.651Z,2.13
2022-10-26T23:44:24.079Z,2.10
2022-10-26T23:46:51.477Z,1.90
2022-10-26T23:49:18.859Z,2.07
2022-10-26T23:51:46.307Z,2.07
2022-10-26T23:54:15.095Z,1.90
2022-10-26T23:56:42.490Z,2.10
2022-10-26T23:59:09.897Z,2.60
